메인 페이지
METAR-TAF:

METAR-TAF

공항 :

우아리 부메디엔 공항

알제, 알제리

위도: 36-43N, 경도: 003-15E, 고도: 25m

현재 날씨관측

예보는 11분 전, 09:30시(UTC)에 발표되었습니다.
5kt서남서풍과 북서풍을 오가는
온도 17°C
습도 63%
기압 1013 hPa
시정 10km 이상
고도 2000ft 상공 구름 조금
고도 8000ft 상공 구름 보통

METAR: DAAG 210930Z 28005KT 240V310 9999 FEW020 SCT080 17/10 Q1013

시각: 10:41 (09:41 UTC)

예보

예보는 4 시간 41분 전, 05:00시(UTC)에 발표되었습니다.
예보 대상 시간: 21일 06시부터 22일 06시까지 (UTC)
10kt
시정 10km 이상
고도 2300ft 상공 구름 보통
고도 8000ft 상공 구름 보통
확률 30% :
일시적
21일 06시부터 21일 09시까지 (UTC)
시정: 5000m
고도 2300ft 상공 구름 조금, 적란운.
약한비
확률 40% :
일시적
21일 09시부터 21일 20시까지 (UTC)
고도 2600ft 상공 구름 조금, 적란운.
전환 중
21일 18시부터 21일 21시까지 (UTC)
여러 방향의 바람 2kt

TAF: DAAG 210500Z 2106/2206 26010KT 9999 SCT023 SCT080 PROB30 TEMPO 2106/2109 5000 -RA FEW023CB PROB40 TEMPO 2109/2120 FEW026CB BECMG 2118/2121 VRB02KT

4,000개 이상의 공항 관측 자료 및 예보 (METAR 및 TAF 보고).

지도상에서 검색 가능한 기상관측소가 노란 점과 빨간 점으로 표시되어 있습니다.

기상관측소 명을 보려면 표시 위로 마우스를 이동하세요.

날씨 관측과 예보를 보려면 클릭하세요.

지도 변경 : 확대하려면 엑스 표시가 있는 녹색 버튼, 축소하려면 빼기 표시가 있는 녹색 버튼, 다음 페이지의 지도를 보려면 녹색 화살표를 클릭하세요.


METAR-TAF: